Time;durP1;ratioP1;P1;durP2;ratioP2;P2;SDS_P1;SDS_P2;PMS_P1;PMS_P2;Temp;Humidity;BMP_temperature;BMP_pressure;BME280_temperature;BME280_humidity;BME280_pressure;Samples;Min_cycle;Max_cycle;Signal;HPM_P1;HPM_P2
2023/10/07 00:00:53;;;;;;;15.00;6.25;;;16.40;99.90;;;;;;4980778;28;90443;-33
2023/10/07 00:03:20;;;;;;;16.48;7.50;;;16.40;99.90;;;;;;4979701;28;89142;-35
2023/10/07 00:05:47;;;;;;;16.08;6.72;;;16.40;99.90;;;;;;4979853;28;89730;-34
2023/10/07 00:08:16;;;;;;;8.55;6.20;;;16.40;99.90;;;;;;4979201;28;89743;-31
2023/10/07 00:10:43;;;;;;;13.63;7.38;;;16.40;99.90;;;;;;4978846;28;91504;-33
2023/10/07 00:13:09;;;;;;;14.35;7.30;;;16.40;99.90;;;;;;4966721;28;89297;-33
2023/10/07 00:15:43;;;;;;;18.02;7.22;;;16.40;99.90;;;;;;4980283;28;89950;-33
2023/10/07 00:18:11;;;;;;;16.40;6.88;;;16.40;99.90;;;;;;4978769;28;90402;-34
2023/10/07 00:20:48;;;;;;;12.05;6.43;;;16.40;99.90;;;;;;4980107;28;90011;-37
2023/10/07 00:23:18;;;;;;;14.00;5.85;;;16.40;99.90;;;;;;4949469;28;89238;-34
2023/10/07 00:25:49;;;;;;;16.27;6.65;;;16.40;99.90;;;;;;4976093;28;89235;-33
2023/10/07 00:28:24;;;;;;;11.75;6.45;;;16.40;99.90;;;;;;4980443;28;90287;-31
2023/10/07 00:30:49;;;;;;;14.90;7.55;;;16.40;99.90;;;;;;4966153;28;89513;-34
2023/10/07 00:33:19;;;;;;;14.85;6.22;;;16.40;99.90;;;;;;4979827;28;88547;-32
2023/10/07 00:35:49;;;;;;;12.50;6.05;;;16.30;99.90;;;;;;4977574;28;89798;-36
2023/10/07 00:38:15;;;;;;;21.95;7.60;;;16.40;99.90;;;;;;4979405;28;89609;-33
2023/10/07 00:40:57;;;;;;;13.73;6.15;;;16.40;99.90;;;;;;4961029;28;90204;-34
2023/10/07 00:43:26;;;;;;;13.55;6.88;;;16.40;99.90;;;;;;4963101;28;90400;-34
2023/10/07 00:46:21;;;;;;;10.40;6.85;;;16.40;99.90;;;;;;4979766;28;89131;-35
2023/10/07 00:48:52;;;;;;;12.55;5.93;;;16.40;99.90;;;;;;4950866;28;89459;-34
2023/10/07 00:51:24;;;;;;;8.32;5.82;;;16.40;99.90;;;;;;4963175;28;89159;-32
2023/10/07 00:54:01;;;;;;;14.50;6.82;;;16.40;99.90;;;;;;4968859;28;89475;-35
2023/10/07 00:56:33;;;;;;;12.80;6.47;;;16.40;99.90;;;;;;4978854;28;89261;-33
2023/10/07 00:59:07;;;;;;;16.00;6.85;;;16.40;99.90;;;;;;4978629;28;90165;-33
2023/10/07 01:01:36;;;;;;;12.55;6.45;;;16.40;99.90;;;;;;4979618;28;90342;-33
2023/10/07 01:04:06;;;;;;;18.90;7.15;;;16.40;99.90;;;;;;4978120;28;90150;-33
2023/10/07 01:06:38;;;;;;;14.65;6.28;;;16.40;99.90;;;;;;4980051;28;88837;-33
2023/10/07 01:09:11;;;;;;;13.13;6.25;;;16.40;99.90;;;;;;4974901;28;90391;-34
2023/10/07 01:11:46;;;;;;;11.45;6.40;;;16.40;99.90;;;;;;4971636;28;89500;-32
2023/10/07 01:14:12;;;;;;;21.00;7.30;;;16.40;99.90;;;;;;4959360;28;88939;-34
2023/10/07 01:16:42;;;;;;;15.68;7.68;;;16.40;99.90;;;;;;4960088;28;89882;-33
2023/10/07 01:21:55;;;;;;;12.95;6.20;;;16.40;99.90;;;;;;4965953;28;89215;-34
2023/10/07 01:27:28;;;;;;;14.20;6.57;;;16.40;99.90;;;;;;4959775;28;88191;-34
2023/10/07 01:30:02;;;;;;;16.98;8.13;;;16.50;99.90;;;;;;4974268;28;89471;-32
2023/10/07 01:32:33;;;;;;;18.80;6.95;;;16.50;99.90;;;;;;4966588;28;90278;-35
2023/10/07 01:35:05;;;;;;;14.55;6.75;;;16.50;99.90;;;;;;4959055;28;89563;-32
2023/10/07 01:37:41;;;;;;;17.30;6.90;;;16.50;99.90;;;;;;4961491;28;89141;-34
2023/10/07 01:40:14;;;;;;;15.02;8.18;;;16.40;99.90;;;;;;4965910;28;91400;-33
2023/10/07 01:42:42;;;;;;;7.13;4.93;;;16.40;99.90;;;;;;4958472;28;89255;-32
2023/10/07 01:45:34;;;;;;;12.48;6.38;;;16.40;99.90;;;;;;4959435;28;88697;-33
2023/10/07 01:47:57;;;;;;;18.98;7.78;;;16.30;99.90;;;;;;4967814;28;89259;-36
2023/10/07 01:50:24;;;;;;;15.73;6.93;;;16.30;99.90;;;;;;4958412;28;89890;-32
2023/10/07 01:52:53;;;;;;;17.83;6.57;;;16.30;99.90;;;;;;4959138;28;88898;-34
2023/10/07 01:55:19;;;;;;;19.00;8.00;;;16.30;99.90;;;;;;4959031;28;89527;-32
2023/10/07 01:57:48;;;;;;;10.80;7.65;;;16.30;99.90;;;;;;4958739;28;90734;-31
2023/10/07 02:00:34;;;;;;;19.67;8.00;;;16.30;99.90;;;;;;4959842;28;90463;-34
2023/10/07 02:03:02;;;;;;;14.95;7.57;;;16.30;99.90;;;;;;4959415;28;89690;-34
2023/10/07 02:05:39;;;;;;;;;;;16.30;99.90;;;;;;4960276;28;89534;-33
2023/10/07 02:08:11;;;;;;;17.10;6.88;;;16.20;99.90;;;;;;4961357;28;89740;-31
2023/10/07 02:10:40;;;;;;;15.73;8.55;;;16.20;99.90;;;;;;4960549;28;89834;-35
2023/10/07 02:13:08;;;;;;;16.90;7.60;;;16.20;99.90;;;;;;4959124;28;90611;-33
2023/10/07 02:15:37;;;;;;;21.27;7.20;;;16.30;99.90;;;;;;4959763;28;90175;-33
2023/10/07 02:18:04;;;;;;;11.60;6.78;;;16.20;99.90;;;;;;4959408;28;88885;-33
2023/10/07 02:20:38;;;;;;;17.73;8.60;;;16.20;99.90;;;;;;4959317;28;89080;-33
2023/10/07 02:23:15;;;;;;;17.20;8.65;;;16.30;99.90;;;;;;4958878;28;90546;-32
2023/10/07 02:25:42;;;;;;;12.23;7.50;;;16.30;99.90;;;;;;4946799;28;90604;-34
2023/10/07 02:28:08;;;;;;;10.52;7.20;;;16.30;99.90;;;;;;4958113;28;89827;-34
2023/10/07 02:31:20;;;;;;;16.40;7.40;;;16.30;99.90;;;;;;4958737;28;90308;-34
2023/10/07 02:33:27;;;;;;;17.70;7.85;;;16.30;99.90;;;;;;4952341;28;90814;-33
2023/10/07 02:35:55;;;;;;;15.27;7.88;;;16.40;99.90;;;;;;4959215;28;89162;-32
2023/10/07 02:38:28;;;;;;;22.52;8.98;;;16.40;99.90;;;;;;4962936;28;89354;-33
2023/10/07 02:40:58;;;;;;;12.02;8.10;;;16.40;99.90;;;;;;4975390;28;89915;-31
2023/10/07 02:43:25;;;;;;;12.23;7.82;;;16.40;99.90;;;;;;4977753;28;89600;-34
2023/10/07 02:45:50;;;;;;;15.68;7.25;;;16.50;99.90;;;;;;4977313;28;90265;-32
2023/10/07 02:48:19;;;;;;;14.32;7.00;;;16.50;99.90;;;;;;4977479;28;89951;-33
2023/10/07 02:50:45;;;;;;;15.48;6.85;;;16.50;99.90;;;;;;4978745;28;88948;-33
2023/10/07 02:53:15;;;;;;;16.80;7.28;;;16.60;99.90;;;;;;4965274;28;89619;-34
2023/10/07 02:55:48;;;;;;;14.73;8.57;;;16.60;99.90;;;;;;4978471;28;89354;-32
2023/10/07 03:01:13;;;;;;;14.83;7.77;;;16.60;99.90;;;;;;4976553;28;90200;-33
2023/10/07 03:03:40;;;;;;;;;;;16.60;99.90;;;;;;4966521;28;89454;-31
2023/10/07 03:06:07;;;;;;;21.77;8.68;;;16.60;99.90;;;;;;4965040;28;89615;-34
2023/10/07 03:08:40;;;;;;;19.15;8.25;;;16.60;99.90;;;;;;4978759;28;88311;-32
2023/10/07 03:11:11;;;;;;;13.70;6.72;;;16.60;99.90;;;;;;4953344;28;90545;-33
2023/10/07 03:13:45;;;;;;;14.68;7.38;;;16.70;99.90;;;;;;4977509;28;91103;-35
2023/10/07 03:24:15;;;;;;;14.02;7.28;;;16.80;99.90;;;;;;4945792;28;89090;-34
2023/10/07 03:26:43;;;;;;;14.82;7.03;;;16.80;99.90;;;;;;4973931;28;90141;-35
2023/10/07 03:29:09;;;;;;;;;;;16.80;99.90;;;;;;4978514;28;89041;-32
2023/10/07 03:31:47;;;;;;;14.32;7.47;;;16.80;99.90;;;;;;4974364;28;90890;-33
2023/10/07 03:34:13;;;;;;;17.20;6.47;;;16.80;99.90;;;;;;4969282;28;89771;-32
2023/10/07 03:36:45;;;;;;;15.23;7.65;;;16.70;99.90;;;;;;4975384;28;89694;-33
2023/10/07 03:41:47;;;;;;;11.93;7.18;;;16.80;99.90;;;;;;4960555;28;90700;-33
2023/10/07 03:44:17;;;;;;;22.05;7.70;;;16.80;99.90;;;;;;4964957;28;89180;-34
2023/10/07 03:46:44;;;;;;;11.60;7.38;;;16.80;99.90;;;;;;4981111;28;89878;-32
2023/10/07 03:49:11;;;;;;;11.67;6.77;;;16.80;99.90;;;;;;4980756;28;88464;-33
2023/10/07 03:51:37;;;;;;;13.25;7.13;;;16.90;99.90;;;;;;4980419;28;90654;-34
2023/10/07 03:54:47;;;;;;;11.80;6.15;;;16.90;99.90;;;;;;4968094;28;89985;-34
2023/10/07 03:56:49;;;;;;;17.95;6.70;;;16.90;99.90;;;;;;4942599;28;89250;-34
2023/10/07 03:59:15;;;;;;;13.90;7.05;;;16.90;99.90;;;;;;4961664;28;89204;-35
2023/10/07 04:01:42;;;;;;;24.98;7.93;;;16.90;99.90;;;;;;4961201;28;89088;-34
2023/10/07 04:04:11;;;;;;;12.65;7.30;;;16.90;99.90;;;;;;4957374;28;89718;-33
2023/10/07 04:06:38;;;;;;;13.35;7.60;;;16.90;99.90;;;;;;4950784;28;90426;-33
2023/10/07 04:09:07;;;;;;;14.88;6.38;;;16.90;99.90;;;;;;4961428;28;89491;-34
2023/10/07 04:11:36;;;;;;;14.75;6.38;;;16.90;99.90;;;;;;4960821;28;89207;-33
2023/10/07 04:14:19;;;;;;;20.25;8.05;;;17.00;99.90;;;;;;4962882;28;89269;-35
2023/10/07 04:16:48;;;;;;;15.63;7.72;;;17.00;99.90;;;;;;4960550;28;88843;-33
2023/10/07 04:21:42;;;;;;;11.90;6.60;;;17.00;99.90;;;;;;4963035;28;90389;-35
2023/10/07 04:24:12;;;;;;;17.70;8.48;;;17.00;99.90;;;;;;4960734;28;88847;-35
2023/10/07 04:26:51;;;;;;;11.90;5.93;;;17.00;99.90;;;;;;4961342;28;89861;-35
2023/10/07 04:29:17;;;;;;;12.98;6.93;;;17.00;99.90;;;;;;4961101;28;89423;-33
2023/10/07 04:31:53;;;;;;;8.18;6.90;;;17.10;99.90;;;;;;4960358;28;91546;-34
2023/10/07 04:34:22;;;;;;;14.30;6.32;;;17.10;99.90;;;;;;4961549;28;89647;-34
2023/10/07 04:39:28;;;;;;;12.07;6.72;;;17.10;99.90;;;;;;4973346;28;88384;-34
2023/10/07 04:41:59;;;;;;;16.20;6.90;;;17.10;99.90;;;;;;4958250;28;89450;-33
2023/10/07 04:50:15;;;;;;;11.55;6.15;;;17.10;99.90;;;;;;4967285;28;90592;-33
2023/10/07 04:52:50;;;;;;;19.10;7.25;;;17.10;99.90;;;;;;4963878;28;89246;-33
2023/10/07 04:55:19;;;;;;;12.52;6.85;;;17.10;99.90;;;;;;4957648;28;92032;-32
2023/10/07 05:02:57;;;;;;;8.95;6.60;;;17.10;99.90;;;;;;4959816;28;90172;-32
2023/10/07 05:05:24;;;;;;;12.52;6.70;;;17.10;99.90;;;;;;4959636;28;89635;-33
2023/10/07 05:07:50;;;;;;;15.23;7.22;;;17.10;99.90;;;;;;4946404;28;90278;-36
2023/10/07 05:10:20;;;;;;;9.50;6.40;;;17.10;99.90;;;;;;4960420;28;88906;-32
2023/10/07 05:12:46;;;;;;;14.88;8.77;;;17.10;99.90;;;;;;4961060;28;91171;-32
2023/10/07 05:15:13;;;;;;;14.15;6.82;;;17.10;99.90;;;;;;4959161;28;89363;-31
2023/10/07 05:17:39;;;;;;;11.27;6.43;;;17.10;99.90;;;;;;4960283;28;89758;-36
2023/10/07 05:20:26;;;;;;;14.20;7.78;;;17.10;99.90;;;;;;4974401;28;89870;-34
2023/10/07 05:22:51;;;;;;;10.90;7.32;;;17.10;99.90;;;;;;4959317;28;90976;-35
2023/10/07 05:25:17;;;;;;;15.48;8.40;;;17.00;99.90;;;;;;4960553;28;88783;-36
2023/10/07 05:27:44;;;;;;;16.05;7.15;;;17.00;99.90;;;;;;4960216;28;89995;-32
2023/10/07 05:30:12;;;;;;;18.40;7.65;;;17.00;99.90;;;;;;4959560;28;88783;-34
2023/10/07 05:32:39;;;;;;;19.67;7.63;;;17.00;99.90;;;;;;4958808;28;89453;-34
2023/10/07 05:35:05;;;;;;;14.77;7.72;;;17.00;99.90;;;;;;4959646;28;89821;-34
2023/10/07 05:37:32;;;;;;;14.80;7.43;;;17.00;99.90;;;;;;4961245;28;91289;-33
2023/10/07 05:39:59;;;;;;;9.63;6.57;;;17.00;99.90;;;;;;4979036;28;89601;-34
2023/10/07 05:42:25;;;;;;;11.90;7.23;;;17.00;99.90;;;;;;5010218;22;91383;-33
2023/10/07 05:44:52;;;;;;;21.17;7.45;;;17.00;99.90;;;;;;4978730;28;91105;-33
2023/10/07 05:47:18;;;;;;;14.13;7.40;;;17.00;99.90;;;;;;4978439;28;90114;-33
2023/10/07 05:49:44;;;;;;;20.40;7.70;;;17.00;99.90;;;;;;4966303;28;89831;-33
2023/10/07 05:52:10;;;;;;;15.65;7.13;;;17.00;99.90;;;;;;4978834;28;91026;-32
2023/10/07 05:54:35;;;;;;;16.65;6.97;;;17.00;99.90;;;;;;4960576;28;89749;-34
2023/10/07 05:57:06;;;;;;;14.95;7.03;;;17.00;99.90;;;;;;4958411;28;89403;-35
2023/10/07 05:59:35;;;;;;;15.38;7.18;;;17.00;99.90;;;;;;4976825;28;89664;-31
2023/10/07 06:02:05;;;;;;;;;;;17.00;99.90;;;;;;4978332;28;90342;-32
2023/10/07 06:04:31;;;;;;;11.65;6.68;;;16.90;99.90;;;;;;4966862;28;88618;-32
2023/10/07 06:06:57;;;;;;;15.98;7.40;;;16.90;99.90;;;;;;4964445;28;89895;-32
2023/10/07 06:09:23;;;;;;;14.57;6.75;;;16.90;99.90;;;;;;4971490;28;89942;-33
2023/10/07 06:11:48;;;;;;;15.25;7.57;;;16.90;99.90;;;;;;4971695;28;91639;-35
2023/10/07 06:14:18;;;;;;;22.35;8.73;;;16.90;99.90;;;;;;4971472;28;90678;-34
2023/10/07 06:16:44;;;;;;;13.88;7.15;;;17.00;99.90;;;;;;4971412;28;89832;-32
2023/10/07 06:19:13;;;;;;;11.43;7.55;;;17.00;99.90;;;;;;4955694;28;89315;-32
2023/10/07 06:21:50;;;;;;;;;;;17.00;99.90;;;;;;4962605;28;89683;-34
2023/10/07 06:24:21;;;;;;;17.55;7.05;;;17.00;99.90;;;;;;4951484;28;88880;-34
2023/10/07 06:26:48;;;;;;;16.92;7.18;;;16.90;99.90;;;;;;4948134;28;89909;-33
2023/10/07 06:29:21;;;;;;;19.02;7.22;;;17.00;99.90;;;;;;4964585;28;88953;-34
2023/10/07 06:31:55;;;;;;;11.77;6.75;;;17.00;99.90;;;;;;4964309;28;90692;-33
2023/10/07 06:34:26;;;;;;;14.07;6.90;;;17.00;99.90;;;;;;4964082;28;90165;-35
2023/10/07 06:36:52;;;;;;;14.70;7.75;;;17.00;99.90;;;;;;4954448;28;90205;-33
2023/10/07 06:39:27;;;;;;;17.90;7.10;;;17.00;99.90;;;;;;4971675;28;88997;-33
2023/10/07 06:41:56;;;;;;;17.90;8.60;;;16.90;99.90;;;;;;4953497;28;89992;-33
2023/10/07 06:44:24;;;;;;;16.35;7.40;;;16.90;99.90;;;;;;4956705;28;89472;-33
2023/10/07 06:46:55;;;;;;;19.70;7.72;;;17.00;99.90;;;;;;4963881;28;90457;-32
2023/10/07 06:49:22;;;;;;;12.25;8.75;;;17.00;99.90;;;;;;4962543;28;89009;-35
2023/10/07 06:51:58;;;;;;;12.23;7.38;;;16.90;99.90;;;;;;4955274;28;92248;-33
2023/10/07 06:54:31;;;;;;;16.75;8.52;;;17.00;99.90;;;;;;4971110;28;89702;-33
2023/10/07 06:56:58;;;;;;;13.25;8.38;;;17.00;99.90;;;;;;4965441;28;89745;-33
2023/10/07 06:59:29;;;;;;;11.50;7.22;;;17.00;99.90;;;;;;4956301;28;88952;-33
2023/10/07 07:01:55;;;;;;;15.15;7.82;;;17.00;99.90;;;;;;4954746;28;90059;-34
2023/10/07 07:04:25;;;;;;;12.38;8.23;;;17.00;99.90;;;;;;4956488;28;90408;-35
2023/10/07 07:07:09;;;;;;;13.40;6.97;;;17.00;99.90;;;;;;4956322;28;88687;-32
2023/10/07 07:12:16;;;;;;;;;;;17.00;99.90;;;;;;4943885;28;90316;-32
2023/10/07 07:14:50;;;;;;;16.60;6.97;;;17.00;99.90;;;;;;4960380;28;90476;-34
2023/10/07 07:17:29;;;;;;;20.45;7.55;;;17.00;99.90;;;;;;4959008;28;90178;-33
2023/10/07 07:22:37;;;;;;;13.63;6.97;;;17.00;99.90;;;;;;4979209;28;90662;-32
2023/10/07 07:25:10;;;;;;;21.95;8.43;;;17.00;99.90;;;;;;4977079;28;91840;-35
2023/10/07 07:27:35;;;;;;;11.77;7.68;;;17.00;99.90;;;;;;4979252;28;89542;-34
2023/10/07 07:30:02;;;;;;;20.05;8.10;;;17.10;99.90;;;;;;4977198;28;87737;-35
2023/10/07 07:32:37;;;;;;;12.90;6.75;;;17.10;99.90;;;;;;4978269;28;89768;-32
2023/10/07 07:35:04;;;;;;;11.13;6.78;;;17.10;99.90;;;;;;4959110;28;89829;-31
2023/10/07 07:37:31;;;;;;;20.02;7.93;;;17.10;99.90;;;;;;4961371;28;90323;-33
2023/10/07 07:40:28;;;;;;;15.17;7.67;;;17.20;99.90;;;;;;4968877;28;90156;-34
2023/10/07 07:42:55;;;;;;;18.75;7.97;;;17.20;99.90;;;;;;4945123;28;90009;-35
2023/10/07 07:45:26;;;;;;;;;;;17.20;99.90;;;;;;4968294;28;89599;-34
2023/10/07 07:47:54;;;;;;;13.77;7.68;;;17.20;99.90;;;;;;4972364;28;89717;-37
2023/10/07 07:50:20;;;;;;;13.48;8.13;;;17.20;99.90;;;;;;4957693;28;89032;-33
2023/10/07 07:52:49;;;;;;;17.90;7.20;;;17.30;99.90;;;;;;4958394;28;89292;-32
2023/10/07 07:55:18;;;;;;;16.27;7.78;;;17.30;99.90;;;;;;4957258;28;90215;-35
2023/10/07 07:57:44;;;;;;;19.30;7.75;;;17.30;99.90;;;;;;4973100;28;88861;-33
2023/10/07 08:00:22;;;;;;;15.10;8.10;;;17.40;99.90;;;;;;4950735;28;88910;-35
2023/10/07 08:02:55;;;;;;;12.43;6.80;;;17.40;99.90;;;;;;4962205;28;90922;-32
2023/10/07 08:05:21;;;;;;;16.88;7.78;;;17.40;99.90;;;;;;4977262;28;90416;-34
2023/10/07 08:07:51;;;;;;;16.10;8.38;;;17.50;99.90;;;;;;4971765;28;90137;-34
2023/10/07 08:10:20;;;;;;;13.73;7.47;;;17.40;99.90;;;;;;4970678;28;89409;-33
2023/10/07 08:12:47;;;;;;;11.25;7.65;;;17.50;99.90;;;;;;4981413;28;90496;-31
2023/10/07 08:17:39;;;;;;;12.00;6.80;;;17.60;99.90;;;;;;4969284;28;91720;-34
2023/10/07 08:20:12;;;;;;;14.50;6.53;;;17.70;99.90;;;;;;4970337;28;88925;-35
2023/10/07 08:22:45;;;;;;;17.83;7.72;;;17.70;99.90;;;;;;4958558;28;90174;-32
2023/10/07 08:25:15;;;;;;;13.85;7.40;;;17.80;99.90;;;;;;4959802;28;89745;-34
2023/10/07 08:27:44;;;;;;;13.85;6.97;;;17.90;99.90;;;;;;4976308;28;89522;-34
2023/10/07 08:30:15;;;;;;;15.23;6.75;;;17.90;99.90;;;;;;4976175;28;90318;-33
2023/10/07 08:32:47;;;;;;;12.10;5.63;;;18.10;99.90;;;;;;4977051;28;90140;-34
2023/10/07 08:35:16;;;;;;;16.27;8.18;;;18.10;99.90;;;;;;4944332;28;88832;-35
2023/10/07 08:37:46;;;;;;;10.82;6.38;;;18.20;99.90;;;;;;4963583;28;89931;-30
2023/10/07 08:40:26;;;;;;;18.42;7.32;;;18.20;99.90;;;;;;4957459;28;89986;-32
2023/10/07 08:42:56;;;;;;;13.63;6.65;;;18.20;99.90;;;;;;4958104;28;90031;-32
2023/10/07 08:45:24;;;;;;;10.27;6.05;;;18.20;99.90;;;;;;4956935;28;89685;-34
2023/10/07 08:48:08;;;;;;;12.23;6.75;;;18.10;99.90;;;;;;4970743;28;88996;-32
2023/10/07 08:50:42;;;;;;;8.43;5.90;;;18.10;99.90;;;;;;4957646;28;88813;-32
2023/10/07 08:53:08;;;;;;;12.48;5.30;;;18.10;99.90;;;;;;4961447;28;90013;-34
2023/10/07 08:55:34;;;;;;;12.13;5.85;;;18.10;99.90;;;;;;4965013;28;89751;-33
2023/10/07 08:58:03;;;;;;;10.70;5.78;;;18.10;99.90;;;;;;4974895;28;89694;-33
2023/10/07 09:00:45;;;;;;;16.00;5.95;;;18.10;99.90;;;;;;4977175;28;88379;-34
2023/10/07 09:03:15;;;;;;;15.60;6.10;;;18.20;99.90;;;;;;4953158;28;90115;-35
2023/10/07 09:05:46;;;;;;;11.60;6.22;;;18.20;99.90;;;;;;4961479;28;90765;-33
2023/10/07 09:08:11;;;;;;;12.30;5.63;;;18.20;99.90;;;;;;4975402;28;89922;-32
2023/10/07 09:10:40;;;;;;;12.13;5.88;;;18.20;99.90;;;;;;4975406;28;89495;-35
2023/10/07 09:13:12;;;;;;;10.30;5.50;;;18.20;99.90;;;;;;4976440;28;90429;-35
2023/10/07 09:15:42;;;;;;;9.52;6.00;;;18.30;99.90;;;;;;4972249;28;89713;-35
2023/10/07 09:18:10;;;;;;;10.23;6.10;;;18.30;99.90;;;;;;4965552;28;92860;-35
2023/10/07 09:20:45;;;;;;;13.02;4.95;;;18.40;99.90;;;;;;4975984;28;89480;-34
2023/10/07 09:23:20;;;;;;;11.32;4.90;;;18.40;99.90;;;;;;4974473;28;90173;-35
2023/10/07 09:25:50;;;;;;;11.43;5.95;;;18.40;99.90;;;;;;4945545;28;90371;-36
2023/10/07 09:28:18;;;;;;;9.38;4.75;;;18.40;99.90;;;;;;4970217;28;89734;-34
2023/10/07 09:30:45;;;;;;;14.25;6.93;;;18.50;99.90;;;;;;4963100;28;90240;-32
2023/10/07 09:33:18;;;;;;;9.70;5.30;;;18.50;99.90;;;;;;4969720;28;90323;-33
2023/10/07 09:35:49;;;;;;;11.48;5.75;;;18.40;99.90;;;;;;4944973;28;89759;-36
2023/10/07 09:38:33;;;;;;;10.98;6.55;;;18.50;99.90;;;;;;4958938;28;88860;-32
2023/10/07 09:43:33;;;;;;;11.85;5.22;;;18.50;99.90;;;;;;4948290;28;90332;-32
2023/10/07 09:45:58;;;;;;;15.27;6.45;;;18.50;99.90;;;;;;4965062;28;90198;-32
2023/10/07 09:48:31;;;;;;;12.60;6.07;;;18.60;99.90;;;;;;4970409;28;89839;-32
2023/10/07 09:51:02;;;;;;;14.73;6.50;;;18.60;99.90;;;;;;4969437;28;88280;-31
2023/10/07 09:53:51;;;;;;;17.73;6.40;;;18.60;99.90;;;;;;4955681;28;90204;-33
2023/10/07 09:56:43;;;;;;;12.45;5.38;;;18.70;99.90;;;;;;4956044;28;89396;-33
2023/10/07 09:59:51;;;;;;;12.70;5.25;;;18.70;99.90;;;;;;4959004;28;90557;-34
2023/10/07 10:02:51;;;;;;;14.70;6.43;;;18.70;99.90;;;;;;4901576;28;88250;-35
2023/10/07 10:05:35;;;;;;;16.33;6.40;;;18.70;99.90;;;;;;4878706;28;90064;-34
2023/10/07 10:08:11;;;;;;;7.57;4.90;;;18.70;99.90;;;;;;4941667;28;88511;-35
2023/10/07 10:10:44;;;;;;;10.55;5.45;;;18.60;99.90;;;;;;4967697;28;89584;-33
2023/10/07 10:13:28;;;;;;;9.93;6.03;;;18.60;99.90;;;;;;4968030;28;88865;-33
2023/10/07 10:15:59;;;;;;;13.70;6.43;;;18.60;99.90;;;;;;4957738;28;89524;-35
2023/10/07 10:18:38;;;;;;;13.48;5.93;;;18.70;99.90;;;;;;4961006;28;89738;-32
2023/10/07 10:21:05;;;;;;;9.43;5.03;;;18.80;99.90;;;;;;4966390;28;89272;-32
2023/10/07 10:23:37;;;;;;;8.40;5.68;;;18.80;99.90;;;;;;4964732;28;89674;-34
2023/10/07 10:26:21;;;;;;;10.45;5.07;;;18.90;99.90;;;;;;4962387;28;88993;-35
2023/10/07 10:28:59;;;;;;;11.23;5.35;;;18.80;99.90;;;;;;4957149;28;89844;-35
2023/10/07 10:31:32;;;;;;;10.20;5.68;;;18.90;99.90;;;;;;4965913;28;88641;-36
2023/10/07 10:34:05;;;;;;;11.60;6.20;;;18.90;99.90;;;;;;4965658;28;88810;-35
2023/10/07 10:36:38;;;;;;;9.15;5.35;;;18.90;99.90;;;;;;4966527;28;90089;-35
2023/10/07 10:39:18;;;;;;;11.55;5.68;;;18.90;99.90;;;;;;4964443;28;89337;-34
2023/10/07 10:41:45;;;;;;;15.30;5.63;;;18.90;99.90;;;;;;4950435;28;91172;-34
2023/10/07 10:44:14;;;;;;;12.48;5.55;;;19.00;99.90;;;;;;4962438;28;88817;-34
2023/10/07 10:46:45;;;;;;;13.27;6.10;;;19.00;99.90;;;;;;4967606;28;90611;-35
2023/10/07 10:49:13;;;;;;;10.90;5.57;;;19.10;99.90;;;;;;4975747;28;90295;-34
2023/10/07 10:51:46;;;;;;;12.27;5.40;;;19.30;99.90;;;;;;4977790;28;89942;-34
2023/10/07 10:54:17;;;;;;;12.68;6.45;;;19.30;99.90;;;;;;4977846;28;89506;-35
2023/10/07 10:56:55;;;;;;;11.63;5.28;;;19.40;99.90;;;;;;4972355;28;90112;-33
2023/10/07 10:59:22;;;;;;;12.02;6.10;;;19.40;99.90;;;;;;4971007;28;89433;-35
2023/10/07 11:01:51;;;;;;;9.02;5.78;;;19.50;99.90;;;;;;4964704;28;89123;-32
2023/10/07 11:04:20;;;;;;;21.80;6.75;;;19.40;99.90;;;;;;4970385;28;88635;-33
2023/10/07 11:06:51;;;;;;;9.20;5.40;;;19.40;99.90;;;;;;4973443;28;90625;-34
2023/10/07 11:09:25;;;;;;;13.10;5.20;;;19.40;99.90;;;;;;4955350;28;90161;-33
2023/10/07 11:11:52;;;;;;;13.85;5.95;;;19.40;99.90;;;;;;4958665;28;89973;-32
2023/10/07 11:14:20;;;;;;;13.73;6.13;;;19.40;99.90;;;;;;4956610;28;88387;-34
2023/10/07 11:16:46;;;;;;;;;;;19.40;99.90;;;;;;4959217;28;90013;-33
2023/10/07 11:19:14;;;;;;;13.05;6.25;;;19.40;99.90;;;;;;4964126;28;89749;-35
2023/10/07 11:21:48;;;;;;;;;;;19.40;99.90;;;;;;4971050;28;88482;-33
2023/10/07 11:24:25;;;;;;;10.27;5.30;;;19.50;99.90;;;;;;4966512;28;88342;-32
2023/10/07 11:26:52;;;;;;;15.57;6.07;;;19.40;99.90;;;;;;4967341;28;90844;-33
2023/10/07 11:29:18;;;;;;;15.40;7.75;;;19.50;99.90;;;;;;4952032;28;89587;-33
2023/10/07 11:31:45;;;;;;;14.30;6.10;;;19.50;99.90;;;;;;4958281;28;89324;-35
2023/10/07 11:34:12;;;;;;;12.98;5.95;;;19.50;99.90;;;;;;4959646;28;89202;-33
2023/10/07 11:36:45;;;;;;;16.40;6.25;;;19.40;99.90;;;;;;4968529;28;90700;-34
2023/10/07 11:39:13;;;;;;;11.38;6.40;;;19.40;99.90;;;;;;4957092;28;90488;-35
2023/10/07 11:41:41;;;;;;;11.45;5.95;;;19.30;99.90;;;;;;4958287;28;90143;-35
2023/10/07 11:44:09;;;;;;;14.38;6.07;;;19.40;99.90;;;;;;4957203;28;89523;-34
2023/10/07 11:46:36;;;;;;;21.20;6.90;;;19.40;99.90;;;;;;4958856;28;91262;-31
2023/10/07 11:49:02;;;;;;;13.50;5.93;;;19.40;99.90;;;;;;4956826;28;88397;-33
2023/10/07 11:51:28;;;;;;;16.13;6.97;;;19.50;99.90;;;;;;4957553;28;87930;-35
2023/10/07 11:53:55;;;;;;;15.48;6.03;;;19.50;99.90;;;;;;4958048;28;89336;-34
2023/10/07 11:56:21;;;;;;;14.17;6.17;;;19.50;99.90;;;;;;4956304;28;90007;-35
2023/10/07 11:58:49;;;;;;;7.85;4.97;;;19.50;99.90;;;;;;4957682;28;90139;-33
2023/10/07 12:01:20;;;;;;;11.55;5.68;;;19.50;99.90;;;;;;4957306;28;88558;-33
2023/10/07 12:03:46;;;;;;;13.32;5.85;;;19.50;99.90;;;;;;4957348;28;89197;-33
2023/10/07 12:06:12;;;;;;;8.02;5.35;;;19.40;99.90;;;;;;4955140;28;91875;-33
2023/10/07 12:08:38;;;;;;;9.43;5.43;;;19.40;99.90;;;;;;4957876;28;89885;-33
2023/10/07 12:11:05;;;;;;;19.27;6.63;;;19.50;99.90;;;;;;4958072;28;89029;-33
2023/10/07 12:13:31;;;;;;;13.23;6.28;;;19.40;99.90;;;;;;4957941;28;89526;-34
2023/10/07 12:15:59;;;;;;;14.95;6.47;;;19.50;99.90;;;;;;4951568;28;90279;-35
2023/10/07 12:18:25;;;;;;;12.27;6.82;;;19.60;99.90;;;;;;4957755;28;90182;-36
2023/10/07 12:20:55;;;;;;;14.45;7.07;;;19.50;99.90;;;;;;4957029;28;90215;-35
2023/10/07 12:23:20;;;;;;;11.23;5.85;;;19.40;99.90;;;;;;4957762;28;88332;-34
2023/10/07 12:25:46;;;;;;;18.50;7.90;;;19.40;99.90;;;;;;4957698;28;89591;-33
2023/10/07 12:28:13;;;;;;;20.38;6.40;;;19.60;99.90;;;;;;4957231;28;90692;-36
2023/10/07 12:30:39;;;;;;;15.10;7.22;;;19.60;99.90;;;;;;4957917;28;90441;-34
2023/10/07 12:33:04;;;;;;;12.77;6.53;;;19.70;99.90;;;;;;4958522;28;89138;-32
2023/10/07 12:35:34;;;;;;;21.02;7.38;;;19.70;99.90;;;;;;4957783;28;89171;-34
2023/10/07 12:38:00;;;;;;;11.75;6.20;;;19.80;99.90;;;;;;4964291;28;89932;-33
2023/10/07 12:40:28;;;;;;;12.23;6.50;;;19.90;99.90;;;;;;4974301;28;90417;-35
2023/10/07 12:42:56;;;;;;;13.55;5.93;;;19.90;99.90;;;;;;4957002;28;88907;-34
2023/10/07 12:45:22;;;;;;;16.40;6.65;;;19.90;99.90;;;;;;4958625;28;89938;-33
2023/10/07 12:47:55;;;;;;;10.85;6.22;;;19.80;99.90;;;;;;4970966;28;89627;-35
2023/10/07 12:50:28;;;;;;;10.13;5.43;;;19.80;99.90;;;;;;4977010;28;89094;-34
2023/10/07 12:52:59;;;;;;;8.93;5.90;;;19.80;99.90;;;;;;4974407;28;88691;-33
2023/10/07 12:55:32;;;;;;;13.38;6.15;;;19.80;99.90;;;;;;4968328;28;90520;-34
2023/10/07 12:58:05;;;;;;;14.18;5.45;;;19.90;99.90;;;;;;4956321;28;91752;-33
2023/10/07 13:00:33;;;;;;;9.63;5.65;;;19.90;99.90;;;;;;4967124;28;89532;-34
2023/10/07 13:03:05;;;;;;;15.55;6.70;;;19.90;99.90;;;;;;4953006;28;89247;-34
2023/10/07 13:05:37;;;;;;;9.20;5.72;;;20.00;99.90;;;;;;4956408;28;89877;-34
2023/10/07 13:08:12;;;;;;;21.23;7.55;;;19.90;99.90;;;;;;4970446;28;89535;-31
2023/10/07 13:10:38;;;;;;;13.35;6.22;;;20.00;99.90;;;;;;4970970;28;89305;-35
2023/10/07 13:13:04;;;;;;;16.90;6.28;;;20.10;99.90;;;;;;4965492;28;90211;-33
2023/10/07 13:15:30;;;;;;;14.95;6.78;;;20.00;99.90;;;;;;4959733;28;90631;-36
2023/10/07 13:18:03;;;;;;;9.43;5.28;;;19.90;99.90;;;;;;4976474;28;90695;-33
2023/10/07 13:20:29;;;;;;;12.60;5.97;;;19.90;99.90;;;;;;4961507;28;90241;-36
2023/10/07 13:22:58;;;;;;;10.95;6.40;;;19.70;99.90;;;;;;4977841;28;88495;-35
2023/10/07 13:25:24;;;;;;;10.23;5.57;;;19.60;99.90;;;;;;4970282;28;90440;-34
2023/10/07 13:27:50;;;;;;;14.02;5.68;;;19.60;99.90;;;;;;4975519;28;90307;-35
2023/10/07 13:30:17;;;;;;;15.85;7.00;;;19.50;99.90;;;;;;4976564;28;90200;-34
2023/10/07 13:32:47;;;;;;;15.10;5.80;;;19.50;99.90;;;;;;4968465;28;89543;-35
2023/10/07 13:35:16;;;;;;;11.10;6.15;;;19.50;99.90;;;;;;4950450;28;89815;-33
2023/10/07 13:37:49;;;;;;;13.57;5.80;;;19.40;99.90;;;;;;4971104;28;90556;-33
2023/10/07 13:40:16;;;;;;;13.00;5.72;;;19.40;99.90;;;;;;4956350;28;89415;-37
2023/10/07 13:42:52;;;;;;;10.98;6.18;;;19.40;99.90;;;;;;4957982;28;88862;-32